Aviation Digital Data Service (ADDS)

Output produced by METARs form (0824 UTC 30 October 2020)
found at http://www.aviationweather.gov/metar/data/
 
Forecast for: KIND (INDIANAPOLIS , IN, US)
Text: KIND 300818Z 3008/3112 34014G22KT P6SM OVC020
Forecast period: 0800 to 1300 UTC 30 October 2020
Forecast type: FROM: standard forecast or significant change
Winds: from the NNW (340 degrees) at 16 MPH (14 knots; 7.2 m/s)
gusting to 25 MPH (22 knots; 11.3 m/s)
Visibility: 6 or more miles (10+ km)
Ceiling: 2000 feet AGL
Clouds: overcast cloud deck at 2000 feet AGL
Weather: no significant weather forecast for this period
Text: FM301300 34007KT P6SM OVC035
Forecast period: 1300 to 1700 UTC 30 October 2020
Forecast type: FROM: standard forecast or significant change
Winds: from the NNW (340 degrees) at 8 MPH (7 knots; 3.6 m/s)
Visibility: 6 or more miles (10+ km)
Ceiling: 3500 feet AGL
Clouds: overcast cloud deck at 3500 feet AGL
Weather: no significant weather forecast for this period
Text: FM301700 33007KT P6SM SCT130
Forecast period: 1700 UTC 30 October 2020 to 1200 UTC 31 October 2020
Forecast type: FROM: standard forecast or significant change
Winds: from the NNW (330 degrees) at 8 MPH (7 knots; 3.6 m/s)
Visibility: 6 or more miles (10+ km)
Ceiling: at least 12,000 feet AGL
Clouds: scattered clouds at 13000 feet AGL
Weather: no significant weather forecast for this period